sensor_id;sensor_type;location;lat;lon;timestamp;P1;durP1;ratioP1;P2;durP2;ratioP2
28086;SDS011;15392;48.912;8.380;2023-02-28T00:01:04;0.65;;;0.65;;
28086;SDS011;15392;48.912;8.380;2023-02-28T00:03:29;0.90;;;0.90;;
28086;SDS011;15392;48.912;8.380;2023-02-28T00:05:55;0.60;;;0.60;;
28086;SDS011;15392;48.912;8.380;2023-02-28T00:08:21;0.60;;;0.60;;
28086;SDS011;15392;48.912;8.380;2023-02-28T00:10:46;0.88;;;0.88;;
28086;SDS011;15392;48.912;8.380;2023-02-28T00:13:12;0.75;;;0.75;;
28086;SDS011;15392;48.912;8.380;2023-02-28T00:15:38;1.00;;;1.00;;
28086;SDS011;15392;48.912;8.380;2023-02-28T00:18:07;0.90;;;0.90;;
28086;SDS011;15392;48.912;8.380;2023-02-28T00:20:32;0.80;;;0.80;;
28086;SDS011;15392;48.912;8.380;2023-02-28T00:22:58;0.80;;;0.80;;
28086;SDS011;15392;48.912;8.380;2023-02-28T00:25:24;0.77;;;0.77;;
28086;SDS011;15392;48.912;8.380;2023-02-28T00:27:51;0.95;;;0.95;;
28086;SDS011;15392;48.912;8.380;2023-02-28T00:30:18;0.75;;;0.75;;
28086;SDS011;15392;48.912;8.380;2023-02-28T00:32:46;0.90;;;0.90;;
28086;SDS011;15392;48.912;8.380;2023-02-28T00:35:12;1.10;;;0.98;;
28086;SDS011;15392;48.912;8.380;2023-02-28T00:37:38;0.90;;;0.90;;
28086;SDS011;15392;48.912;8.380;2023-02-28T00:40:04;0.85;;;0.85;;
28086;SDS011;15392;48.912;8.380;2023-02-28T00:42:32;0.90;;;0.90;;
28086;SDS011;15392;48.912;8.380;2023-02-28T00:44:59;0.80;;;0.80;;
28086;SDS011;15392;48.912;8.380;2023-02-28T00:47:26;0.77;;;0.77;;
28086;SDS011;15392;48.912;8.380;2023-02-28T00:49:51;0.80;;;0.80;;
28086;SDS011;15392;48.912;8.380;2023-02-28T00:52:17;0.80;;;0.80;;
28086;SDS011;15392;48.912;8.380;2023-02-28T00:54:43;0.80;;;0.80;;
28086;SDS011;15392;48.912;8.380;2023-02-28T00:57:08;0.85;;;0.85;;
28086;SDS011;15392;48.912;8.380;2023-02-28T00:59:34;0.80;;;0.80;;
28086;SDS011;15392;48.912;8.380;2023-02-28T01:02:00;1.00;;;1.00;;
28086;SDS011;15392;48.912;8.380;2023-02-28T01:04:26;1.00;;;0.90;;
28086;SDS011;15392;48.912;8.380;2023-02-28T01:06:52;0.80;;;0.80;;
28086;SDS011;15392;48.912;8.380;2023-02-28T01:09:17;0.80;;;0.80;;
28086;SDS011;15392;48.912;8.380;2023-02-28T01:11:43;0.70;;;0.70;;
28086;SDS011;15392;48.912;8.380;2023-02-28T01:14:11;0.77;;;0.77;;
28086;SDS011;15392;48.912;8.380;2023-02-28T01:16:43;0.73;;;0.73;;
28086;SDS011;15392;48.912;8.380;2023-02-28T01:19:09;0.82;;;0.82;;
28086;SDS011;15392;48.912;8.380;2023-02-28T01:21:35;0.88;;;0.88;;
28086;SDS011;15392;48.912;8.380;2023-02-28T01:24:01;0.75;;;0.75;;
28086;SDS011;15392;48.912;8.380;2023-02-28T01:26:31;0.80;;;0.80;;
28086;SDS011;15392;48.912;8.380;2023-02-28T01:28:57;0.77;;;0.77;;
28086;SDS011;15392;48.912;8.380;2023-02-28T01:31:22;1.00;;;1.00;;
28086;SDS011;15392;48.912;8.380;2023-02-28T01:33:49;0.80;;;0.80;;
28086;SDS011;15392;48.912;8.380;2023-02-28T01:36:16;0.90;;;0.90;;
28086;SDS011;15392;48.912;8.380;2023-02-28T01:38:48;0.90;;;0.90;;
28086;SDS011;15392;48.912;8.380;2023-02-28T01:41:17;0.90;;;0.90;;
28086;SDS011;15392;48.912;8.380;2023-02-28T01:46:12;0.80;;;0.80;;
28086;SDS011;15392;48.912;8.380;2023-02-28T01:48:46;0.80;;;0.80;;
28086;SDS011;15392;48.912;8.380;2023-02-28T01:54:16;0.70;;;0.70;;
28086;SDS011;15392;48.912;8.380;2023-02-28T01:56:55;0.93;;;0.70;;
28086;SDS011;15392;48.912;8.380;2023-02-28T01:59:33;0.75;;;0.75;;
28086;SDS011;15392;48.912;8.380;2023-02-28T02:02:11;0.85;;;0.85;;
28086;SDS011;15392;48.912;8.380;2023-02-28T02:04:39;0.73;;;0.73;;
28086;SDS011;15392;48.912;8.380;2023-02-28T02:07:16;0.80;;;0.73;;
28086;SDS011;15392;48.912;8.380;2023-02-28T02:09:42;1.08;;;1.08;;
28086;SDS011;15392;48.912;8.380;2023-02-28T02:12:12;0.90;;;0.90;;
28086;SDS011;15392;48.912;8.380;2023-02-28T02:15:00;0.77;;;0.77;;
28086;SDS011;15392;48.912;8.380;2023-02-28T02:17:45;0.80;;;0.80;;
28086;SDS011;15392;48.912;8.380;2023-02-28T02:23:29;1.00;;;1.00;;
28086;SDS011;15392;48.912;8.380;2023-02-28T02:35:36;0.70;;;0.70;;
28086;SDS011;15392;48.912;8.380;2023-02-28T02:41:05;0.80;;;0.80;;
28086;SDS011;15392;48.912;8.380;2023-02-28T02:49:00;1.00;;;1.00;;
28086;SDS011;15392;48.912;8.380;2023-02-28T02:51:31;0.82;;;0.82;;
28086;SDS011;15392;48.912;8.380;2023-02-28T02:54:12;0.90;;;0.90;;
28086;SDS011;15392;48.912;8.380;2023-02-28T02:56:48;0.90;;;0.90;;
28086;SDS011;15392;48.912;8.380;2023-02-28T02:59:17;0.90;;;0.90;;
28086;SDS011;15392;48.912;8.380;2023-02-28T03:01:49;1.00;;;1.00;;
28086;SDS011;15392;48.912;8.380;2023-02-28T03:04:20;0.85;;;0.85;;
28086;SDS011;15392;48.912;8.380;2023-02-28T03:06:48;0.90;;;0.90;;
28086;SDS011;15392;48.912;8.380;2023-02-28T03:09:23;0.90;;;0.90;;
28086;SDS011;15392;48.912;8.380;2023-02-28T03:20:41;0.90;;;0.80;;
28086;SDS011;15392;48.912;8.380;2023-02-28T03:23:35;0.77;;;0.77;;
28086;SDS011;15392;48.912;8.380;2023-02-28T03:26:13;0.90;;;0.90;;
28086;SDS011;15392;48.912;8.380;2023-02-28T03:31:30;1.00;;;1.00;;
28086;SDS011;15392;48.912;8.380;2023-02-28T03:34:10;0.80;;;0.80;;
28086;SDS011;15392;48.912;8.380;2023-02-28T03:36:43;1.23;;;1.20;;
28086;SDS011;15392;48.912;8.380;2023-02-28T03:39:16;1.20;;;1.20;;
28086;SDS011;15392;48.912;8.380;2023-02-28T03:42:00;1.10;;;1.10;;
28086;SDS011;15392;48.912;8.380;2023-02-28T03:44:35;0.80;;;0.80;;
28086;SDS011;15392;48.912;8.380;2023-02-28T03:47:26;1.00;;;1.00;;
28086;SDS011;15392;48.912;8.380;2023-02-28T03:50:12;1.10;;;1.10;;
28086;SDS011;15392;48.912;8.380;2023-02-28T03:52:49;1.05;;;1.05;;
28086;SDS011;15392;48.912;8.380;2023-02-28T03:55:25;1.00;;;1.00;;
28086;SDS011;15392;48.912;8.380;2023-02-28T04:00:31;1.20;;;1.20;;
28086;SDS011;15392;48.912;8.380;2023-02-28T04:03:08;1.35;;;1.25;;
28086;SDS011;15392;48.912;8.380;2023-02-28T04:05:43;1.00;;;1.00;;
28086;SDS011;15392;48.912;8.380;2023-02-28T04:08:16;1.08;;;1.08;;
28086;SDS011;15392;48.912;8.380;2023-02-28T04:10:42;1.20;;;1.20;;
28086;SDS011;15392;48.912;8.380;2023-02-28T04:13:13;1.10;;;1.10;;
28086;SDS011;15392;48.912;8.380;2023-02-28T04:15:39;1.05;;;1.05;;
28086;SDS011;15392;48.912;8.380;2023-02-28T04:18:04;1.10;;;1.10;;
28086;SDS011;15392;48.912;8.380;2023-02-28T04:20:31;1.10;;;1.10;;
28086;SDS011;15392;48.912;8.380;2023-02-28T04:22:56;1.10;;;1.10;;
28086;SDS011;15392;48.912;8.380;2023-02-28T04:25:22;1.00;;;1.00;;
28086;SDS011;15392;48.912;8.380;2023-02-28T04:27:48;1.40;;;1.40;;
28086;SDS011;15392;48.912;8.380;2023-02-28T04:30:13;1.25;;;1.25;;
28086;SDS011;15392;48.912;8.380;2023-02-28T04:32:39;1.10;;;1.10;;
28086;SDS011;15392;48.912;8.380;2023-02-28T04:35:05;1.17;;;1.17;;
28086;SDS011;15392;48.912;8.380;2023-02-28T04:37:31;1.30;;;1.30;;
28086;SDS011;15392;48.912;8.380;2023-02-28T04:39:59;1.08;;;1.08;;
28086;SDS011;15392;48.912;8.380;2023-02-28T04:42:26;1.30;;;1.30;;
28086;SDS011;15392;48.912;8.380;2023-02-28T04:44:52;1.17;;;1.15;;
28086;SDS011;15392;48.912;8.380;2023-02-28T04:47:17;1.20;;;1.20;;
28086;SDS011;15392;48.912;8.380;2023-02-28T04:49:43;1.20;;;1.20;;
28086;SDS011;15392;48.912;8.380;2023-02-28T04:52:09;1.45;;;1.45;;
28086;SDS011;15392;48.912;8.380;2023-02-28T04:54:35;1.50;;;1.40;;
28086;SDS011;15392;48.912;8.380;2023-02-28T04:57:03;1.38;;;1.38;;
28086;SDS011;15392;48.912;8.380;2023-02-28T04:59:29;1.38;;;1.33;;
28086;SDS011;15392;48.912;8.380;2023-02-28T05:01:55;1.25;;;1.25;;
28086;SDS011;15392;48.912;8.380;2023-02-28T05:04:20;1.60;;;1.50;;
28086;SDS011;15392;48.912;8.380;2023-02-28T05:06:46;1.38;;;1.38;;
28086;SDS011;15392;48.912;8.380;2023-02-28T05:09:12;1.48;;;1.48;;
28086;SDS011;15392;48.912;8.380;2023-02-28T05:11:38;1.33;;;1.23;;
28086;SDS011;15392;48.912;8.380;2023-02-28T05:14:06;1.27;;;1.27;;
28086;SDS011;15392;48.912;8.380;2023-02-28T05:16:36;1.38;;;1.38;;
28086;SDS011;15392;48.912;8.380;2023-02-28T05:19:02;1.40;;;1.40;;
28086;SDS011;15392;48.912;8.380;2023-02-28T05:21:32;1.30;;;1.30;;
28086;SDS011;15392;48.912;8.380;2023-02-28T05:24:04;1.30;;;1.30;;
28086;SDS011;15392;48.912;8.380;2023-02-28T05:26:35;1.50;;;1.50;;
28086;SDS011;15392;48.912;8.380;2023-02-28T05:29:04;1.30;;;1.30;;
28086;SDS011;15392;48.912;8.380;2023-02-28T05:31:30;1.60;;;1.60;;
28086;SDS011;15392;48.912;8.380;2023-02-28T05:33:56;1.42;;;1.42;;
28086;SDS011;15392;48.912;8.380;2023-02-28T05:36:22;1.60;;;1.60;;
28086;SDS011;15392;48.912;8.380;2023-02-28T05:38:48;1.63;;;1.52;;
28086;SDS011;15392;48.912;8.380;2023-02-28T05:41:15;1.45;;;1.45;;
28086;SDS011;15392;48.912;8.380;2023-02-28T05:43:42;1.30;;;1.30;;
28086;SDS011;15392;48.912;8.380;2023-02-28T05:46:08;1.48;;;1.48;;
28086;SDS011;15392;48.912;8.380;2023-02-28T05:48:36;1.45;;;1.45;;
28086;SDS011;15392;48.912;8.380;2023-02-28T05:51:03;1.33;;;1.33;;
28086;SDS011;15392;48.912;8.380;2023-02-28T05:53:31;1.40;;;1.40;;
28086;SDS011;15392;48.912;8.380;2023-02-28T05:55:58;1.40;;;1.40;;
28086;SDS011;15392;48.912;8.380;2023-02-28T05:58:24;1.50;;;1.50;;
28086;SDS011;15392;48.912;8.380;2023-02-28T06:00:56;1.33;;;1.33;;
28086;SDS011;15392;48.912;8.380;2023-02-28T06:03:23;1.25;;;1.25;;
28086;SDS011;15392;48.912;8.380;2023-02-28T06:05:49;1.50;;;1.50;;
28086;SDS011;15392;48.912;8.380;2023-02-28T06:08:15;1.48;;;1.48;;
28086;SDS011;15392;48.912;8.380;2023-02-28T06:10:41;1.23;;;1.23;;
28086;SDS011;15392;48.912;8.380;2023-02-28T06:13:07;1.30;;;1.30;;
28086;SDS011;15392;48.912;8.380;2023-02-28T06:15:33;1.48;;;1.48;;
28086;SDS011;15392;48.912;8.380;2023-02-28T06:17:58;1.48;;;1.38;;
28086;SDS011;15392;48.912;8.380;2023-02-28T06:20:25;1.50;;;1.45;;
28086;SDS011;15392;48.912;8.380;2023-02-28T06:22:55;1.63;;;1.40;;
28086;SDS011;15392;48.912;8.380;2023-02-28T06:25:23;1.45;;;1.45;;
28086;SDS011;15392;48.912;8.380;2023-02-28T06:27:50;1.45;;;1.45;;
28086;SDS011;15392;48.912;8.380;2023-02-28T06:30:15;1.60;;;1.60;;
28086;SDS011;15392;48.912;8.380;2023-02-28T06:32:42;1.58;;;1.50;;
28086;SDS011;15392;48.912;8.380;2023-02-28T06:35:08;1.83;;;1.50;;
28086;SDS011;15392;48.912;8.380;2023-02-28T06:37:33;1.95;;;1.85;;
28086;SDS011;15392;48.912;8.380;2023-02-28T06:39:59;2.10;;;2.00;;
28086;SDS011;15392;48.912;8.380;2023-02-28T06:42:25;1.85;;;1.75;;
28086;SDS011;15392;48.912;8.380;2023-02-28T06:44:53;1.65;;;1.60;;
28086;SDS011;15392;48.912;8.380;2023-02-28T06:47:23;1.38;;;1.38;;
28086;SDS011;15392;48.912;8.380;2023-02-28T06:49:49;1.33;;;1.33;;
28086;SDS011;15392;48.912;8.380;2023-02-28T06:52:15;1.75;;;1.75;;
28086;SDS011;15392;48.912;8.380;2023-02-28T06:54:41;1.60;;;1.50;;
28086;SDS011;15392;48.912;8.380;2023-02-28T06:57:07;1.98;;;1.88;;
28086;SDS011;15392;48.912;8.380;2023-02-28T06:59:33;1.58;;;1.58;;
28086;SDS011;15392;48.912;8.380;2023-02-28T07:02:00;1.80;;;1.75;;
28086;SDS011;15392;48.912;8.380;2023-02-28T07:04:27;2.03;;;1.92;;
28086;SDS011;15392;48.912;8.380;2023-02-28T07:06:54;1.65;;;1.60;;
28086;SDS011;15392;48.912;8.380;2023-02-28T07:09:21;1.42;;;1.42;;
28086;SDS011;15392;48.912;8.380;2023-02-28T07:11:48;1.80;;;1.70;;
28086;SDS011;15392;48.912;8.380;2023-02-28T07:14:14;1.60;;;1.60;;
28086;SDS011;15392;48.912;8.380;2023-02-28T07:16:40;1.58;;;1.58;;
28086;SDS011;15392;48.912;8.380;2023-02-28T07:19:05;1.77;;;1.67;;
28086;SDS011;15392;48.912;8.380;2023-02-28T07:21:31;1.67;;;1.65;;
28086;SDS011;15392;48.912;8.380;2023-02-28T07:23:57;1.30;;;1.30;;
28086;SDS011;15392;48.912;8.380;2023-02-28T07:26:22;1.75;;;1.70;;
28086;SDS011;15392;48.912;8.380;2023-02-28T07:28:48;1.50;;;1.50;;
28086;SDS011;15392;48.912;8.380;2023-02-28T07:31:14;1.67;;;1.67;;
28086;SDS011;15392;48.912;8.380;2023-02-28T07:33:42;1.88;;;1.77;;
28086;SDS011;15392;48.912;8.380;2023-02-28T07:36:12;2.00;;;1.90;;
28086;SDS011;15392;48.912;8.380;2023-02-28T07:38:40;1.73;;;1.63;;
28086;SDS011;15392;48.912;8.380;2023-02-28T07:41:08;1.75;;;1.73;;
28086;SDS011;15392;48.912;8.380;2023-02-28T07:43:34;2.15;;;2.05;;
28086;SDS011;15392;48.912;8.380;2023-02-28T07:46:01;2.13;;;2.03;;
28086;SDS011;15392;48.912;8.380;2023-02-28T07:48:36;1.95;;;1.85;;
28086;SDS011;15392;48.912;8.380;2023-02-28T07:51:02;1.88;;;1.77;;
28086;SDS011;15392;48.912;8.380;2023-02-28T07:53:28;1.85;;;1.75;;
28086;SDS011;15392;48.912;8.380;2023-02-28T07:55:55;1.98;;;1.88;;
28086;SDS011;15392;48.912;8.380;2023-02-28T07:58:23;2.17;;;2.08;;
28086;SDS011;15392;48.912;8.380;2023-02-28T08:00:49;2.17;;;2.08;;
28086;SDS011;15392;48.912;8.380;2023-02-28T08:03:17;1.92;;;1.83;;
28086;SDS011;15392;48.912;8.380;2023-02-28T08:05:45;2.05;;;1.95;;
28086;SDS011;15392;48.912;8.380;2023-02-28T08:08:10;2.30;;;2.20;;
28086;SDS011;15392;48.912;8.380;2023-02-28T08:10:36;1.90;;;1.90;;
28086;SDS011;15392;48.912;8.380;2023-02-28T08:13:02;1.92;;;1.83;;
28086;SDS011;15392;48.912;8.380;2023-02-28T08:15:28;1.70;;;1.70;;
28086;SDS011;15392;48.912;8.380;2023-02-28T08:17:54;2.10;;;2.00;;
28086;SDS011;15392;48.912;8.380;2023-02-28T08:20:21;1.48;;;1.48;;
28086;SDS011;15392;48.912;8.380;2023-02-28T08:22:48;1.80;;;1.70;;
28086;SDS011;15392;48.912;8.380;2023-02-28T08:25:14;1.67;;;1.63;;
28086;SDS011;15392;48.912;8.380;2023-02-28T08:27:40;1.85;;;1.75;;
28086;SDS011;15392;48.912;8.380;2023-02-28T08:30:06;1.58;;;1.58;;
28086;SDS011;15392;48.912;8.380;2023-02-28T08:32:33;1.75;;;1.67;;
28086;SDS011;15392;48.912;8.380;2023-02-28T08:34:59;1.85;;;1.85;;
28086;SDS011;15392;48.912;8.380;2023-02-28T08:37:24;1.80;;;1.80;;
28086;SDS011;15392;48.912;8.380;2023-02-28T08:39:51;2.13;;;2.03;;
28086;SDS011;15392;48.912;8.380;2023-02-28T08:42:16;1.60;;;1.60;;
28086;SDS011;15392;48.912;8.380;2023-02-28T08:44:42;1.92;;;1.90;;
28086;SDS011;15392;48.912;8.380;2023-02-28T08:47:08;2.47;;;2.00;;
28086;SDS011;15392;48.912;8.380;2023-02-28T08:49:34;2.17;;;2.05;;
28086;SDS011;15392;48.912;8.380;2023-02-28T08:51:59;2.45;;;2.35;;
28086;SDS011;15392;48.912;8.380;2023-02-28T08:54:25;1.70;;;1.70;;
28086;SDS011;15392;48.912;8.380;2023-02-28T08:56:51;1.92;;;1.83;;
28086;SDS011;15392;48.912;8.380;2023-02-28T08:59:16;2.30;;;2.20;;
28086;SDS011;15392;48.912;8.380;2023-02-28T09:01:42;2.08;;;1.98;;
28086;SDS011;15392;48.912;8.380;2023-02-28T09:04:08;2.17;;;2.08;;
28086;SDS011;15392;48.912;8.380;2023-02-28T09:06:36;2.05;;;1.98;;
28086;SDS011;15392;48.912;8.380;2023-02-28T09:09:02;1.85;;;1.77;;
28086;SDS011;15392;48.912;8.380;2023-02-28T09:11:31;2.10;;;2.00;;
28086;SDS011;15392;48.912;8.380;2023-02-28T09:13:57;2.17;;;2.08;;
28086;SDS011;15392;48.912;8.380;2023-02-28T09:16:25;1.90;;;1.80;;
28086;SDS011;15392;48.912;8.380;2023-02-28T09:18:51;2.20;;;2.10;;
28086;SDS011;15392;48.912;8.380;2023-02-28T09:21:17;2.03;;;1.92;;
28086;SDS011;15392;48.912;8.380;2023-02-28T09:23:44;2.25;;;2.15;;
28086;SDS011;15392;48.912;8.380;2023-02-28T09:26:20;2.28;;;2.17;;
28086;SDS011;15392;48.912;8.380;2023-02-28T09:28:49;2.10;;;2.00;;
28086;SDS011;15392;48.912;8.380;2023-02-28T09:31:18;1.73;;;1.73;;
28086;SDS011;15392;48.912;8.380;2023-02-28T09:33:52;2.10;;;2.00;;
28086;SDS011;15392;48.912;8.380;2023-02-28T09:36:20;2.22;;;2.13;;
28086;SDS011;15392;48.912;8.380;2023-02-28T09:38:46;2.20;;;2.10;;
28086;SDS011;15392;48.912;8.380;2023-02-28T09:41:14;2.10;;;2.00;;
28086;SDS011;15392;48.912;8.380;2023-02-28T09:43:51;2.50;;;2.40;;
28086;SDS011;15392;48.912;8.380;2023-02-28T09:46:25;2.15;;;2.05;;
28086;SDS011;15392;48.912;8.380;2023-02-28T09:49:19;2.17;;;2.08;;
28086;SDS011;15392;48.912;8.380;2023-02-28T09:51:50;2.58;;;2.38;;
28086;SDS011;15392;48.912;8.380;2023-02-28T09:54:29;2.28;;;2.17;;
28086;SDS011;15392;48.912;8.380;2023-02-28T09:57:08;2.13;;;2.03;;
28086;SDS011;15392;48.912;8.380;2023-02-28T09:59:48;2.42;;;2.33;;
28086;SDS011;15392;48.912;8.380;2023-02-28T10:02:48;2.08;;;2.00;;
28086;SDS011;15392;48.912;8.380;2023-02-28T10:05:39;2.40;;;2.30;;
28086;SDS011;15392;48.912;8.380;2023-02-28T10:08:19;2.33;;;2.22;;
28086;SDS011;15392;48.912;8.380;2023-02-28T10:10:54;4.85;;;2.35;;
28086;SDS011;15392;48.912;8.380;2023-02-28T10:13:34;2.75;;;2.65;;
28086;SDS011;15392;48.912;8.380;2023-02-28T10:19:03;2.70;;;2.60;;
28086;SDS011;15392;48.912;8.380;2023-02-28T10:21:36;2.50;;;2.40;;
28086;SDS011;15392;48.912;8.380;2023-02-28T10:24:20;2.22;;;2.13;;
28086;SDS011;15392;48.912;8.380;2023-02-28T10:29:50;2.10;;;2.00;;
28086;SDS011;15392;48.912;8.380;2023-02-28T10:32:35;2.25;;;2.15;;
28086;SDS011;15392;48.912;8.380;2023-02-28T10:35:10;2.67;;;2.58;;
28086;SDS011;15392;48.912;8.380;2023-02-28T10:37:48;2.55;;;2.45;;
28086;SDS011;15392;48.912;8.380;2023-02-28T10:42:58;2.90;;;2.80;;
28086;SDS011;15392;48.912;8.380;2023-02-28T10:45:26;3.35;;;2.60;;
28086;SDS011;15392;48.912;8.380;2023-02-28T10:53:16;2.85;;;2.75;;
28086;SDS011;15392;48.912;8.380;2023-02-28T10:58:55;2.28;;;2.17;;
28086;SDS011;15392;48.912;8.380;2023-02-28T11:06:47;3.13;;;2.90;;
28086;SDS011;15392;48.912;8.380;2023-02-28T11:09:45;2.45;;;2.35;;
28086;SDS011;15392;48.912;8.380;2023-02-28T11:12:25;2.42;;;2.33;;
28086;SDS011;15392;48.912;8.380;2023-02-28T11:15:01;2.95;;;2.85;;
28086;SDS011;15392;48.912;8.380;2023-02-28T11:17:44;2.40;;;2.30;;
28086;SDS011;15392;48.912;8.380;2023-02-28T11:20:37;2.72;;;2.63;;
28086;SDS011;15392;48.912;8.380;2023-02-28T11:23:05;2.53;;;2.42;;
28086;SDS011;15392;48.912;8.380;2023-02-28T11:25:38;2.75;;;2.65;;
28086;SDS011;15392;48.912;8.380;2023-02-28T11:28:05;3.20;;;3.10;;
28086;SDS011;15392;48.912;8.380;2023-02-28T11:33:54;2.85;;;2.65;;
28086;SDS011;15392;48.912;8.380;2023-02-28T11:36:21;2.78;;;2.67;;
28086;SDS011;15392;48.912;8.380;2023-02-28T11:38:54;2.80;;;2.70;;
28086;SDS011;15392;48.912;8.380;2023-02-28T11:41:39;2.90;;;2.80;;
28086;SDS011;15392;48.912;8.380;2023-02-28T11:47:38;2.88;;;2.78;;
28086;SDS011;15392;48.912;8.380;2023-02-28T11:50:21;3.03;;;2.92;;
28086;SDS011;15392;48.912;8.380;2023-02-28T11:53:06;2.53;;;2.42;;
28086;SDS011;15392;48.912;8.380;2023-02-28T11:55:45;2.72;;;2.63;;
28086;SDS011;15392;48.912;8.380;2023-02-28T12:01:19;2.70;;;2.60;;
28086;SDS011;15392;48.912;8.380;2023-02-28T12:09:30;2.53;;;2.42;;
28086;SDS011;15392;48.912;8.380;2023-02-28T12:12:29;2.70;;;2.60;;
28086;SDS011;15392;48.912;8.380;2023-02-28T12:15:18;2.55;;;2.45;;
28086;SDS011;15392;48.912;8.380;2023-02-28T12:20:46;2.72;;;2.63;;
28086;SDS011;15392;48.912;8.380;2023-02-28T12:23:34;2.65;;;2.55;;
28086;SDS011;15392;48.912;8.380;2023-02-28T12:34:41;2.45;;;2.33;;
28086;SDS011;15392;48.912;8.380;2023-02-28T12:37:15;2.38;;;2.28;;
28086;SDS011;15392;48.912;8.380;2023-02-28T12:39:49;2.42;;;2.33;;
28086;SDS011;15392;48.912;8.380;2023-02-28T12:42:24;2.33;;;2.22;;
28086;SDS011;15392;48.912;8.380;2023-02-28T12:50:15;2.13;;;2.03;;
28086;SDS011;15392;48.912;8.380;2023-02-28T12:52:46;2.40;;;2.30;;
28086;SDS011;15392;48.912;8.380;2023-02-28T13:01:12;2.40;;;2.30;;
28086;SDS011;15392;48.912;8.380;2023-02-28T13:07:17;2.33;;;2.22;;
28086;SDS011;15392;48.912;8.380;2023-02-28T13:10:07;2.13;;;2.03;;
28086;SDS011;15392;48.912;8.380;2023-02-28T13:12:34;2.35;;;2.25;;
28086;SDS011;15392;48.912;8.380;2023-02-28T13:15:08;2.92;;;2.83;;
28086;SDS011;15392;48.912;8.380;2023-02-28T13:17:54;2.55;;;2.45;;
28086;SDS011;15392;48.912;8.380;2023-02-28T13:20:24;2.58;;;2.47;;
28086;SDS011;15392;48.912;8.380;2023-02-28T13:22:59;2.55;;;2.45;;
28086;SDS011;15392;48.912;8.380;2023-02-28T13:28:12;2.92;;;2.83;;
28086;SDS011;15392;48.912;8.380;2023-02-28T13:31:13;2.70;;;2.60;;
28086;SDS011;15392;48.912;8.380;2023-02-28T13:38:57;2.90;;;2.80;;
28086;SDS011;15392;48.912;8.380;2023-02-28T14:01:36;2.70;;;2.60;;
28086;SDS011;15392;48.912;8.380;2023-02-28T14:06:46;2.45;;;2.35;;
28086;SDS011;15392;48.912;8.380;2023-02-28T14:09:29;2.85;;;2.75;;
28086;SDS011;15392;48.912;8.380;2023-02-28T14:15:27;2.50;;;2.40;;
28086;SDS011;15392;48.912;8.380;2023-02-28T14:17:56;2.50;;;2.40;;
28086;SDS011;15392;48.912;8.380;2023-02-28T14:20:25;2.58;;;2.47;;
28086;SDS011;15392;48.912;8.380;2023-02-28T14:22:58;2.75;;;2.65;;
28086;SDS011;15392;48.912;8.380;2023-02-28T14:32:05;2.58;;;2.47;;
28086;SDS011;15392;48.912;8.380;2023-02-28T14:34:59;2.92;;;2.83;;
28086;SDS011;15392;48.912;8.380;2023-02-28T14:37:52;3.00;;;2.80;;
28086;SDS011;15392;48.912;8.380;2023-02-28T14:40:30;2.67;;;2.58;;
28086;SDS011;15392;48.912;8.380;2023-02-28T14:42:59;2.72;;;2.63;;
28086;SDS011;15392;48.912;8.380;2023-02-28T14:45:30;2.45;;;2.33;;
28086;SDS011;15392;48.912;8.380;2023-02-28T14:48:16;2.70;;;2.60;;
28086;SDS011;15392;48.912;8.380;2023-02-28T14:50:48;2.97;;;2.88;;
28086;SDS011;15392;48.912;8.380;2023-02-28T14:53:18;2.53;;;2.42;;
28086;SDS011;15392;48.912;8.380;2023-02-28T14:55:47;2.80;;;2.70;;
28086;SDS011;15392;48.912;8.380;2023-02-28T14:58:22;2.88;;;2.78;;
28086;SDS011;15392;48.912;8.380;2023-02-28T15:00:54;2.80;;;2.70;;
28086;SDS011;15392;48.912;8.380;2023-02-28T15:06:01;2.80;;;2.70;;
28086;SDS011;15392;48.912;8.380;2023-02-28T15:08:32;2.85;;;2.75;;
28086;SDS011;15392;48.912;8.380;2023-02-28T15:13:39;2.85;;;2.75;;
28086;SDS011;15392;48.912;8.380;2023-02-28T15:16:10;2.80;;;2.70;;
28086;SDS011;15392;48.912;8.380;2023-02-28T15:21:20;2.88;;;2.70;;
28086;SDS011;15392;48.912;8.380;2023-02-28T15:23:54;2.85;;;2.75;;
28086;SDS011;15392;48.912;8.380;2023-02-28T15:26:49;2.78;;;2.67;;
28086;SDS011;15392;48.912;8.380;2023-02-28T15:29:21;2.75;;;2.65;;
28086;SDS011;15392;48.912;8.380;2023-02-28T15:31:57;2.90;;;2.80;;
28086;SDS011;15392;48.912;8.380;2023-02-28T15:40:04;2.95;;;2.85;;
28086;SDS011;15392;48.912;8.380;2023-02-28T15:42:41;3.03;;;2.92;;
28086;SDS011;15392;48.912;8.380;2023-02-28T15:45:28;3.33;;;3.13;;
28086;SDS011;15392;48.912;8.380;2023-02-28T15:48:04;2.75;;;2.65;;
28086;SDS011;15392;48.912;8.380;2023-02-28T15:50:55;2.70;;;2.60;;
28086;SDS011;15392;48.912;8.380;2023-02-28T15:53:56;2.63;;;2.53;;
28086;SDS011;15392;48.912;8.380;2023-02-28T15:56:30;2.78;;;2.67;;
28086;SDS011;15392;48.912;8.380;2023-02-28T15:59:04;2.72;;;2.63;;
28086;SDS011;15392;48.912;8.380;2023-02-28T16:01:33;2.70;;;2.60;;
28086;SDS011;15392;48.912;8.380;2023-02-28T16:04:02;3.05;;;2.95;;
28086;SDS011;15392;48.912;8.380;2023-02-28T16:06:44;2.97;;;2.78;;
28086;SDS011;15392;48.912;8.380;2023-02-28T16:09:23;2.80;;;2.70;;
28086;SDS011;15392;48.912;8.380;2023-02-28T16:11:50;3.20;;;3.10;;
28086;SDS011;15392;48.912;8.380;2023-02-28T16:14:20;3.30;;;3.10;;
28086;SDS011;15392;48.912;8.380;2023-02-28T16:16:51;2.70;;;2.60;;
28086;SDS011;15392;48.912;8.380;2023-02-28T16:19:20;2.53;;;2.42;;
28086;SDS011;15392;48.912;8.380;2023-02-28T16:21:46;3.10;;;3.00;;
28086;SDS011;15392;48.912;8.380;2023-02-28T16:24:13;3.13;;;3.00;;
28086;SDS011;15392;48.912;8.380;2023-02-28T16:26:40;3.17;;;3.08;;
28086;SDS011;15392;48.912;8.380;2023-02-28T16:29:08;3.25;;;3.10;;
28086;SDS011;15392;48.912;8.380;2023-02-28T16:31:39;3.20;;;3.10;;
28086;SDS011;15392;48.912;8.380;2023-02-28T16:34:05;3.38;;;3.17;;
28086;SDS011;15392;48.912;8.380;2023-02-28T16:36:30;2.90;;;2.80;;
28086;SDS011;15392;48.912;8.380;2023-02-28T16:38:56;3.65;;;3.45;;
28086;SDS011;15392;48.912;8.380;2023-02-28T16:41:24;3.15;;;3.05;;
28086;SDS011;15392;48.912;8.380;2023-02-28T16:43:52;3.53;;;3.33;;
28086;SDS011;15392;48.912;8.380;2023-02-28T16:46:26;3.15;;;3.05;;
28086;SDS011;15392;48.912;8.380;2023-02-28T16:48:56;2.90;;;2.80;;
28086;SDS011;15392;48.912;8.380;2023-02-28T16:51:22;3.10;;;3.00;;
28086;SDS011;15392;48.912;8.380;2023-02-28T16:53:48;3.20;;;3.10;;
28086;SDS011;15392;48.912;8.380;2023-02-28T16:56:15;3.70;;;3.50;;
28086;SDS011;15392;48.912;8.380;2023-02-28T16:58:44;3.30;;;3.20;;
28086;SDS011;15392;48.912;8.380;2023-02-28T17:01:10;2.80;;;2.70;;
28086;SDS011;15392;48.912;8.380;2023-02-28T17:03:36;3.08;;;2.97;;
28086;SDS011;15392;48.912;8.380;2023-02-28T17:06:02;2.97;;;2.88;;
28086;SDS011;15392;48.912;8.380;2023-02-28T17:08:29;3.10;;;3.00;;
28086;SDS011;15392;48.912;8.380;2023-02-28T17:10:57;3.95;;;2.85;;
28086;SDS011;15392;48.912;8.380;2023-02-28T17:13:24;3.03;;;2.92;;
28086;SDS011;15392;48.912;8.380;2023-02-28T17:15:49;3.22;;;3.13;;
28086;SDS011;15392;48.912;8.380;2023-02-28T17:18:16;3.70;;;3.40;;
28086;SDS011;15392;48.912;8.380;2023-02-28T17:20:44;4.10;;;3.90;;
28086;SDS011;15392;48.912;8.380;2023-02-28T17:23:11;4.65;;;4.45;;
28086;SDS011;15392;48.912;8.380;2023-02-28T17:25:37;4.32;;;4.03;;
28086;SDS011;15392;48.912;8.380;2023-02-28T17:28:03;4.30;;;4.10;;
28086;SDS011;15392;48.912;8.380;2023-02-28T17:30:29;3.67;;;3.50;;
28086;SDS011;15392;48.912;8.380;2023-02-28T17:32:58;3.83;;;3.63;;
28086;SDS011;15392;48.912;8.380;2023-02-28T17:35:24;3.97;;;3.78;;
28086;SDS011;15392;48.912;8.380;2023-02-28T17:37:51;3.92;;;3.72;;
28086;SDS011;15392;48.912;8.380;2023-02-28T17:40:19;3.05;;;2.95;;
28086;SDS011;15392;48.912;8.380;2023-02-28T17:42:47;3.05;;;2.95;;
28086;SDS011;15392;48.912;8.380;2023-02-28T17:45:14;3.53;;;3.40;;
28086;SDS011;15392;48.912;8.380;2023-02-28T17:47:41;3.20;;;3.10;;